PWSweather.com
Personal Weather Stations
Station Observations
KNCGREEN1000
Bell Orchard Drive, Greensboro, NC 27455

Bell Orchard DriveGreensboro, NC 27455

Lat: 36.132, Lon: -79.8

Elevation: 876

Station Type: Acurite Atlas

Http://www.gilhutcheson.com

High Low Average
Temperature 56.7°F13.7°C 36.3°F2.4°C 47.4°F8.6°C
Dew Point 39.3°F4.1°C 23.5°F-4.7°C 32.0°F0.0°C
Winds 10.0 mph 16.1 kmh Calm Calm 2.0 mph S3.2 kmh S
Wind Gusts -- -- --
Humidity 74% 41% 56%
Pressure 30.28 in1025.4 mb 30.21 in1023.0 mb -
Precipitation 0.00 in0.0 mm - -
Hour Temp Dew Point Humidity Winds Wind Gusts Pressure Precip Precip Rate Daily Precip Total
12:04 AM 37.8°F3.2°C 26.2°F-3.2°C 63% 2.0 mph S3.2 kmh S -- 30.26 in1024.7 mb 0.00 in0.0 mm 0.00 in0.0 mm 0.00 in0.0 mm
12:08 AM 37.7°F3.2°C 26.2°F-3.2°C 63% 1.0 mph S1.6 kmh S -- 30.26 in1024.7 mb 0.00 in0.0 mm 0.00 in0.0 mm 0.00 in0.0 mm
12:14 AM 37.3°F2.9°C 26.0°F-3.3°C 64% 2.0 mph S3.2 kmh S -- 30.26 in1024.7 mb 0.00 in0.0 mm 0.00 in0.0 mm 0.00 in0.0 mm
12:18 AM 37.1°F2.8°C 25.5°F-3.6°C 63% 2.0 mph S3.2 kmh S -- 30.26 in1024.7 mb 0.00 in0.0 mm 0.00 in0.0 mm 0.00 in0.0 mm
12:24 AM 37.2°F2.9°C 25.3°F-3.7°C 62% 2.0 mph S3.2 kmh S -- 30.26 in1024.7 mb 0.00 in0.0 mm 0.00 in0.0 mm 0.00 in0.0 mm
12:29 AM 37.6°F3.1°C 26.0°F-3.3°C 63% 2.0 mph S3.2 kmh S -- 30.26 in1024.7 mb 0.00 in0.0 mm 0.00 in0.0 mm 0.00 in0.0 mm
12:33 AM 37.7°F3.2°C 25.4°F-3.7°C 61% 2.0 mph S3.2 kmh S -- 30.26 in1024.7 mb 0.00 in0.0 mm 0.00 in0.0 mm 0.00 in0.0 mm
12:39 AM 38.0°F3.3°C 24.7°F-4.1°C 59% 1.0 mph S1.6 kmh S -- 30.26 in1024.7 mb 0.00 in0.0 mm 0.00 in0.0 mm 0.00 in0.0 mm
12:43 AM 38.8°F3.8°C 24.7°F-4.1°C 57% 3.0 mph S4.8 kmh S -- 30.25 in1024.4 mb 0.00 in0.0 mm 0.00 in0.0 mm 0.00 in0.0 mm
12:49 AM 39.7°F4.3°C 25.2°F-3.8°C 56% 4.0 mph S6.4 kmh S -- 30.25 in1024.4 mb 0.00 in0.0 mm 0.00 in0.0 mm 0.00 in0.0 mm
12:54 AM 40.4°F4.7°C 25.4°F-3.7°C 55% 3.0 mph S4.8 kmh S -- 30.25 in1024.4 mb 0.00 in0.0 mm 0.00 in0.0 mm 0.00 in0.0 mm
12:58 AM 40.5°F4.7°C 25.0°F-3.9°C 54% 2.0 mph S3.2 kmh S -- 30.25 in1024.4 mb 0.00 in0.0 mm 0.00 in0.0 mm 0.00 in0.0 mm
01:03 AM 40.2°F4.6°C 24.8°F-4.0°C 54% Calm Calm -- 30.25 in1024.4 mb 0.00 in0.0 mm 0.00 in0.0 mm 0.00 in0.0 mm
01:09 AM 40.1°F4.5°C 25.1°F-3.8°C 55% Calm Calm -- 30.25 in1024.4 mb 0.00 in0.0 mm 0.00 in0.0 mm 0.00 in0.0 mm
01:14 AM 39.7°F4.3°C 24.7°F-4.1°C 55% Calm Calm -- 30.24 in1024.0 mb 0.00 in0.0 mm 0.00 in0.0 mm 0.00 in0.0 mm
01:19 AM 39.4°F4.1°C 24.4°F-4.2°C 55% 1.0 mph S1.6 kmh S -- 30.25 in1024.4 mb 0.00 in0.0 mm 0.00 in0.0 mm 0.00 in0.0 mm
01:24 AM 39.1°F3.9°C 24.5°F-4.2°C 56% Calm Calm -- 30.25 in1024.4 mb 0.00 in0.0 mm 0.00 in0.0 mm 0.00 in0.0 mm
01:29 AM 39.3°F4.1°C 24.4°F-4.2°C 55% 2.0 mph S3.2 kmh S -- 30.25 in1024.4 mb 0.00 in0.0 mm 0.00 in0.0 mm 0.00 in0.0 mm
01:34 AM 40.0°F4.4°C 24.4°F-4.2°C 54% 2.0 mph S3.2 kmh S -- 30.25 in1024.4 mb 0.00 in0.0 mm 0.00 in0.0 mm 0.00 in0.0 mm
01:39 AM 40.6°F4.8°C 24.7°F-4.1°C 53% 2.0 mph S3.2 kmh S -- 30.25 in1024.4 mb 0.00 in0.0 mm 0.00 in0.0 mm 0.00 in0.0 mm
01:43 AM 40.9°F4.9°C 24.4°F-4.2°C 52% 1.0 mph S1.6 kmh S -- 30.25 in1024.4 mb 0.00 in0.0 mm 0.00 in0.0 mm 0.00 in0.0 mm
01:48 AM 41.0°F5.0°C 24.5°F-4.2°C 52% 1.0 mph S1.6 kmh S -- 30.25 in1024.4 mb 0.00 in0.0 mm 0.00 in0.0 mm 0.00 in0.0 mm
01:54 AM 40.9°F4.9°C 24.4°F-4.2°C 52% Calm Calm -- 30.25 in1024.4 mb 0.00 in0.0 mm 0.00 in0.0 mm 0.00 in0.0 mm
01:59 AM 40.8°F4.9°C 24.8°F-4.0°C 53% Calm Calm -- 30.25 in1024.4 mb 0.00 in0.0 mm 0.00 in0.0 mm 0.00 in0.0 mm
02:03 AM 40.2°F4.6°C 24.8°F-4.0°C 54% Calm Calm -- 30.25 in1024.4 mb 0.00 in0.0 mm 0.00 in0.0 mm 0.00 in0.0 mm
02:09 AM 39.8°F4.3°C 24.3°F-4.3°C 54% Calm Calm -- 30.25 in1024.4 mb 0.00 in0.0 mm 0.00 in0.0 mm 0.00 in0.0 mm
02:13 AM 39.2°F4.0°C 24.7°F-4.1°C 56% Calm Calm -- 30.25 in1024.4 mb 0.00 in0.0 mm 0.00 in0.0 mm 0.00 in0.0 mm
02:19 AM 38.7°F3.7°C 24.6°F-4.1°C 57% Calm Calm -- 30.25 in1024.4 mb 0.00 in0.0 mm 0.00 in0.0 mm 0.00 in0.0 mm
02:23 AM 38.2°F3.4°C 23.6°F-4.7°C 56% Calm Calm -- 30.25 in1024.4 mb 0.00 in0.0 mm 0.00 in0.0 mm 0.00 in0.0 mm
02:28 AM 38.1°F3.4°C 24.9°F-3.9°C 59% 1.0 mph S1.6 kmh S -- 30.25 in1024.4 mb 0.00 in0.0 mm 0.00 in0.0 mm 0.00 in0.0 mm
02:34 AM 37.8°F3.2°C 25.0°F-3.9°C 60% Calm Calm -- 30.25 in1024.4 mb 0.00 in0.0 mm 0.00 in0.0 mm 0.00 in0.0 mm
02:38 AM 37.7°F3.2°C 24.6°F-4.1°C 59% Calm Calm -- 30.25 in1024.4 mb 0.00 in0.0 mm 0.00 in0.0 mm 0.00 in0.0 mm
02:44 AM 37.3°F2.9°C 24.5°F-4.2°C 60% Calm Calm -- 30.25 in1024.4 mb 0.00 in0.0 mm 0.00 in0.0 mm 0.00 in0.0 mm
02:49 AM 37.0°F2.8°C 24.3°F-4.3°C 60% Calm Calm -- 30.25 in1024.4 mb 0.00 in0.0 mm 0.00 in0.0 mm 0.00 in0.0 mm
02:53 AM 36.7°F2.6°C 23.9°F-4.5°C 60% Calm Calm -- 30.25 in1024.4 mb 0.00 in0.0 mm 0.00 in0.0 mm 0.00 in0.0 mm
02:58 AM 36.4°F2.4°C 23.6°F-4.7°C 60% Calm Calm -- 30.25 in1024.4 mb 0.00 in0.0 mm 0.00 in0.0 mm 0.00 in0.0 mm
03:04 AM 36.3°F2.4°C 24.0°F-4.4°C 61% Calm Calm -- 30.25 in1024.4 mb 0.00 in0.0 mm 0.00 in0.0 mm 0.00 in0.0 mm
03:09 AM 36.4°F2.4°C 23.6°F-4.7°C 60% Calm Calm -- 30.25 in1024.4 mb 0.00 in0.0 mm 0.00 in0.0 mm 0.00 in0.0 mm
03:14 AM 36.7°F2.6°C 23.5°F-4.7°C 59% Calm Calm -- 30.26 in1024.7 mb 0.00 in0.0 mm 0.00 in0.0 mm 0.00 in0.0 mm
03:18 AM 36.9°F2.7°C 23.7°F-4.6°C 59% 1.0 mph S1.6 kmh S -- 30.26 in1024.7 mb 0.00 in0.0 mm 0.00 in0.0 mm 0.00 in0.0 mm
03:24 AM 37.2°F2.9°C 23.6°F-4.7°C 58% Calm Calm -- 30.25 in1024.4 mb 0.00 in0.0 mm 0.00 in0.0 mm 0.00 in0.0 mm
03:29 AM 37.7°F3.2°C 23.7°F-4.6°C 57% 1.0 mph SSE1.6 kmh SSE -- 30.25 in1024.4 mb 0.00 in0.0 mm 0.00 in0.0 mm 0.00 in0.0 mm
03:34 AM 38.4°F3.6°C 24.0°F-4.4°C 56% 1.0 mph S1.6 kmh S -- 30.26 in1024.7 mb 0.00 in0.0 mm 0.00 in0.0 mm 0.00 in0.0 mm
03:38 AM 39.2°F4.0°C 23.8°F-4.6°C 54% 3.0 mph S4.8 kmh S -- 30.25 in1024.4 mb 0.00 in0.0 mm 0.00 in0.0 mm 0.00 in0.0 mm
03:43 AM 39.9°F4.4°C 24.0°F-4.4°C 53% 1.0 mph S1.6 kmh S -- 30.25 in1024.4 mb 0.00 in0.0 mm 0.00 in0.0 mm 0.00 in0.0 mm
03:49 AM 40.4°F4.7°C 24.5°F-4.2°C 53% 2.0 mph S3.2 kmh S -- 30.25 in1024.4 mb 0.00 in0.0 mm 0.00 in0.0 mm 0.00 in0.0 mm
03:54 AM 40.5°F4.7°C 24.0°F-4.4°C 52% 2.0 mph S3.2 kmh S -- 30.25 in1024.4 mb 0.00 in0.0 mm 0.00 in0.0 mm 0.00 in0.0 mm
03:58 AM 40.5°F4.7°C 24.5°F-4.2°C 53% 1.0 mph S1.6 kmh S -- 30.24 in1024.0 mb 0.00 in0.0 mm 0.00 in0.0 mm 0.00 in0.0 mm
04:04 AM 40.3°F4.6°C 24.3°F-4.3°C 53% 3.0 mph S4.8 kmh S -- 30.24 in1024.0 mb 0.00 in0.0 mm 0.00 in0.0 mm 0.00 in0.0 mm
04:08 AM 40.2°F4.6°C 24.8°F-4.0°C 54% 2.0 mph S3.2 kmh S -- 30.25 in1024.4 mb 0.00 in0.0 mm 0.00 in0.0 mm 0.00 in0.0 mm
04:14 AM 40.1°F4.5°C 24.6°F-4.1°C 54% 3.0 mph S4.8 kmh S -- 30.25 in1024.4 mb 0.00 in0.0 mm 0.00 in0.0 mm 0.00 in0.0 mm
04:18 AM 40.2°F4.6°C 24.8°F-4.0°C 54% 3.0 mph S4.8 kmh S -- 30.24 in1024.0 mb 0.00 in0.0 mm 0.00 in0.0 mm 0.00 in0.0 mm
04:24 AM 40.3°F4.6°C 24.3°F-4.3°C 53% 2.0 mph S3.2 kmh S -- 30.24 in1024.0 mb 0.00 in0.0 mm 0.00 in0.0 mm 0.00 in0.0 mm
04:29 AM 40.3°F4.6°C 24.8°F-4.0°C 54% 1.0 mph S1.6 kmh S -- 30.24 in1024.0 mb 0.00 in0.0 mm 0.00 in0.0 mm 0.00 in0.0 mm
04:34 AM 40.3°F4.6°C 24.8°F-4.0°C 54% 2.0 mph S3.2 kmh S -- 30.24 in1024.0 mb 0.00 in0.0 mm 0.00 in0.0 mm 0.00 in0.0 mm
04:38 AM 40.3°F4.6°C 24.8°F-4.0°C 54% 2.0 mph S3.2 kmh S -- 30.24 in1024.0 mb 0.00 in0.0 mm 0.00 in0.0 mm 0.00 in0.0 mm
04:44 AM 40.1°F4.5°C 25.1°F-3.8°C 55% 2.0 mph S3.2 kmh S -- 30.24 in1024.0 mb 0.00 in0.0 mm 0.00 in0.0 mm 0.00 in0.0 mm
04:48 AM 40.1°F4.5°C 25.1°F-3.8°C 55% 2.0 mph SSE3.2 kmh SSE -- 30.24 in1024.0 mb 0.00 in0.0 mm 0.00 in0.0 mm 0.00 in0.0 mm
04:54 AM 40.1°F4.5°C 25.1°F-3.8°C 55% 2.0 mph SSE3.2 kmh SSE -- 30.24 in1024.0 mb 0.00 in0.0 mm 0.00 in0.0 mm 0.00 in0.0 mm
04:58 AM 40.1°F4.5°C 24.6°F-4.1°C 54% 1.0 mph S1.6 kmh S -- 30.24 in1024.0 mb 0.00 in0.0 mm 0.00 in0.0 mm 0.00 in0.0 mm
05:04 AM 40.0°F4.4°C 24.9°F-3.9°C 55% 1.0 mph S1.6 kmh S -- 30.24 in1024.0 mb 0.00 in0.0 mm 0.00 in0.0 mm 0.00 in0.0 mm
05:09 AM 39.8°F4.3°C 24.7°F-4.1°C 55% 2.0 mph S3.2 kmh S -- 30.24 in1024.0 mb 0.00 in0.0 mm 0.00 in0.0 mm 0.00 in0.0 mm
05:13 AM 39.7°F4.3°C 25.2°F-3.8°C 56% 1.0 mph SSE1.6 kmh SSE -- 30.24 in1024.0 mb 0.00 in0.0 mm 0.00 in0.0 mm 0.00 in0.0 mm
05:18 AM 39.6°F4.2°C 25.0°F-3.9°C 56% Calm Calm -- 30.24 in1024.0 mb 0.00 in0.0 mm 0.00 in0.0 mm 0.00 in0.0 mm
05:24 AM 39.5°F4.2°C 25.0°F-3.9°C 56% 3.0 mph SSE4.8 kmh SSE -- 30.24 in1024.0 mb 0.00 in0.0 mm 0.00 in0.0 mm 0.00 in0.0 mm
05:29 AM 39.5°F4.2°C 25.4°F-3.7°C 57% Calm Calm -- 30.24 in1024.0 mb 0.00 in0.0 mm 0.00 in0.0 mm 0.00 in0.0 mm
05:34 AM 39.6°F4.2°C 25.8°F-3.4°C 58% 2.0 mph S3.2 kmh S -- 30.25 in1024.4 mb 0.00 in0.0 mm 0.00 in0.0 mm 0.00 in0.0 mm
05:39 AM 39.7°F4.3°C 26.0°F-3.3°C 58% 7.0 mph S11.3 kmh S -- 30.25 in1024.4 mb 0.00 in0.0 mm 0.00 in0.0 mm 0.00 in0.0 mm
05:44 AM 40.2°F4.6°C 26.1°F-3.3°C 57% 1.0 mph S1.6 kmh S -- 30.25 in1024.4 mb 0.00 in0.0 mm 0.00 in0.0 mm 0.00 in0.0 mm
05:49 AM 40.6°F4.8°C 26.4°F-3.1°C 57% 3.0 mph SSW4.8 kmh SSW -- 30.25 in1024.4 mb 0.00 in0.0 mm 0.00 in0.0 mm 0.00 in0.0 mm
05:54 AM 41.4°F5.2°C 26.2°F-3.2°C 55% 1.0 mph S1.6 kmh S -- 30.25 in1024.4 mb 0.00 in0.0 mm 0.00 in0.0 mm 0.00 in0.0 mm
05:58 AM 41.8°F5.4°C 26.1°F-3.3°C 54% 2.0 mph SSW3.2 kmh SSW -- 30.25 in1024.4 mb 0.00 in0.0 mm 0.00 in0.0 mm 0.00 in0.0 mm
06:03 AM 41.8°F5.4°C 26.6°F-3.0°C 55% Calm Calm -- 30.24 in1024.0 mb 0.00 in0.0 mm 0.00 in0.0 mm 0.00 in0.0 mm
06:09 AM 41.6°F5.3°C 26.4°F-3.1°C 55% 1.0 mph SSE1.6 kmh SSE -- 30.25 in1024.4 mb 0.00 in0.0 mm 0.00 in0.0 mm 0.00 in0.0 mm
06:14 AM 41.7°F5.4°C 26.6°F-3.0°C 55% 2.0 mph S3.2 kmh S -- 30.25 in1024.4 mb 0.00 in0.0 mm 0.00 in0.0 mm 0.00 in0.0 mm
06:18 AM 41.8°F5.4°C 26.6°F-3.0°C 55% 2.0 mph S3.2 kmh S -- 30.25 in1024.4 mb 0.00 in0.0 mm 0.00 in0.0 mm 0.00 in0.0 mm
06:24 AM 41.9°F5.5°C 26.7°F-2.9°C 55% 1.0 mph S1.6 kmh S -- 30.25 in1024.4 mb 0.00 in0.0 mm 0.00 in0.0 mm 0.00 in0.0 mm
06:28 AM 41.8°F5.4°C 26.6°F-3.0°C 55% 1.0 mph S1.6 kmh S -- 30.25 in1024.4 mb 0.00 in0.0 mm 0.00 in0.0 mm 0.00 in0.0 mm
06:34 AM 41.7°F5.4°C 27.0°F-2.8°C 56% Calm Calm -- 30.26 in1024.7 mb 0.00 in0.0 mm 0.00 in0.0 mm 0.00 in0.0 mm
06:38 AM 41.8°F5.4°C 26.6°F-3.0°C 55% 1.0 mph S1.6 kmh S -- 30.26 in1024.7 mb 0.00 in0.0 mm 0.00 in0.0 mm 0.00 in0.0 mm
06:44 AM 42.0°F5.6°C 26.9°F-2.8°C 55% 2.0 mph S3.2 kmh S -- 30.26 in1024.7 mb 0.00 in0.0 mm 0.00 in0.0 mm 0.00 in0.0 mm
06:49 AM 42.1°F5.6°C 26.9°F-2.8°C 55% 1.0 mph S1.6 kmh S -- 30.25 in1024.4 mb 0.00 in0.0 mm 0.00 in0.0 mm 0.00 in0.0 mm
06:54 AM 42.0°F5.6°C 27.4°F-2.6°C 56% 2.0 mph W3.2 kmh W -- 30.26 in1024.7 mb 0.00 in0.0 mm 0.00 in0.0 mm 0.00 in0.0 mm
06:58 AM 42.0°F5.6°C 27.4°F-2.6°C 56% Calm Calm -- 30.26 in1024.7 mb 0.00 in0.0 mm 0.00 in0.0 mm 0.00 in0.0 mm
07:04 AM 41.9°F5.5°C 26.7°F-2.9°C 55% 2.0 mph S3.2 kmh S -- 30.26 in1024.7 mb 0.00 in0.0 mm 0.00 in0.0 mm 0.00 in0.0 mm
07:08 AM 41.9°F5.5°C 26.7°F-2.9°C 55% 1.0 mph S1.6 kmh S -- 30.26 in1024.7 mb 0.00 in0.0 mm 0.00 in0.0 mm 0.00 in0.0 mm
07:14 AM 42.0°F5.6°C 26.9°F-2.8°C 55% 1.0 mph SSE1.6 kmh SSE -- 30.26 in1024.7 mb 0.00 in0.0 mm 0.00 in0.0 mm 0.00 in0.0 mm
07:18 AM 42.1°F5.6°C 28.6°F-1.9°C 59% Calm Calm -- 30.27 in1025.1 mb 0.00 in0.0 mm 0.00 in0.0 mm 0.00 in0.0 mm
07:24 AM 42.0°F5.6°C 27.4°F-2.6°C 56% 4.0 mph S6.4 kmh S -- 30.27 in1025.1 mb 0.00 in0.0 mm 0.00 in0.0 mm 0.00 in0.0 mm
07:28 AM 42.2°F5.7°C 27.5°F-2.5°C 56% 2.0 mph S3.2 kmh S -- 30.26 in1024.7 mb 0.00 in0.0 mm 0.00 in0.0 mm 0.00 in0.0 mm
07:34 AM 42.5°F5.8°C 27.2°F-2.7°C 55% 5.0 mph SSW8.0 kmh SSW -- 30.27 in1025.1 mb 0.00 in0.0 mm 0.00 in0.0 mm 0.00 in0.0 mm
07:39 AM 42.9°F6.1°C 27.8°F-2.3°C 55% 4.0 mph SSW6.4 kmh SSW -- 30.26 in1024.7 mb 0.00 in0.0 mm 0.00 in0.0 mm 0.00 in0.0 mm
07:43 AM 43.3°F6.3°C 27.6°F-2.4°C 54% 3.0 mph S4.8 kmh S -- 30.26 in1024.7 mb 0.00 in0.0 mm 0.00 in0.0 mm 0.00 in0.0 mm
07:49 AM 43.7°F6.5°C 27.5°F-2.5°C 53% 4.0 mph SSE6.4 kmh SSE -- 30.26 in1024.7 mb 0.00 in0.0 mm 0.00 in0.0 mm 0.00 in0.0 mm
07:54 AM 44.0°F6.7°C 27.9°F-2.3°C 53% 5.0 mph S8.0 kmh S -- 30.26 in1024.7 mb 0.00 in0.0 mm 0.00 in0.0 mm 0.00 in0.0 mm
07:59 AM 44.2°F6.8°C 28.0°F-2.2°C 53% 7.0 mph SSE11.3 kmh SSE -- 30.25 in1024.4 mb 0.00 in0.0 mm 0.00 in0.0 mm 0.00 in0.0 mm
08:03 AM 44.2°F6.8°C 27.6°F-2.4°C 52% 4.0 mph S6.4 kmh S -- 30.25 in1024.4 mb 0.00 in0.0 mm 0.00 in0.0 mm 0.00 in0.0 mm
08:09 AM 44.1°F6.7°C 27.9°F-2.3°C 53% 3.0 mph S4.8 kmh S -- 30.26 in1024.7 mb 0.00 in0.0 mm 0.00 in0.0 mm 0.00 in0.0 mm
08:14 AM 44.0°F6.7°C 28.3°F-2.1°C 54% 1.0 mph S1.6 kmh S -- 30.26 in1024.7 mb 0.00 in0.0 mm 0.00 in0.0 mm 0.00 in0.0 mm
08:18 AM 44.0°F6.7°C 28.8°F-1.8°C 55% 2.0 mph S3.2 kmh S -- 30.27 in1025.1 mb 0.00 in0.0 mm 0.00 in0.0 mm 0.00 in0.0 mm
08:23 AM 44.0°F6.7°C 28.3°F-2.1°C 54% 1.0 mph SSE1.6 kmh SSE -- 30.27 in1025.1 mb 0.00 in0.0 mm 0.00 in0.0 mm 0.00 in0.0 mm
08:29 AM 44.2°F6.8°C 28.5°F-1.9°C 54% 1.0 mph S1.6 kmh S -- 30.26 in1024.7 mb 0.00 in0.0 mm 0.00 in0.0 mm 0.00 in0.0 mm
08:33 AM 44.4°F6.9°C 28.6°F-1.9°C 54% 2.0 mph S3.2 kmh S -- 30.27 in1025.1 mb 0.00 in0.0 mm 0.00 in0.0 mm 0.00 in0.0 mm
08:39 AM 44.6°F7.0°C 28.8°F-1.8°C 54% 2.0 mph SSW3.2 kmh SSW -- 30.27 in1025.1 mb 0.00 in0.0 mm 0.00 in0.0 mm 0.00 in0.0 mm
08:43 AM 44.9°F7.2°C 28.7°F-1.8°C 53% Calm Calm -- 30.27 in1025.1 mb 0.00 in0.0 mm 0.00 in0.0 mm 0.00 in0.0 mm
08:49 AM 45.1°F7.3°C 28.9°F-1.7°C 53% 1.0 mph S1.6 kmh S -- 30.27 in1025.1 mb 0.00 in0.0 mm 0.00 in0.0 mm 0.00 in0.0 mm
08:54 AM 45.5°F7.5°C 29.2°F-1.6°C 53% 2.0 mph S3.2 kmh S -- 30.27 in1025.1 mb 0.00 in0.0 mm 0.00 in0.0 mm 0.00 in0.0 mm
08:58 AM 46.0°F7.8°C 29.2°F-1.6°C 52% 3.0 mph SE4.8 kmh SE -- 30.27 in1025.1 mb 0.00 in0.0 mm 0.00 in0.0 mm 0.00 in0.0 mm
09:03 AM 46.4°F8.0°C 29.1°F-1.6°C 51% 3.0 mph S4.8 kmh S -- 30.27 in1025.1 mb 0.00 in0.0 mm 0.00 in0.0 mm 0.00 in0.0 mm
09:09 AM 46.7°F8.2°C 28.9°F-1.7°C 50% 2.0 mph SSE3.2 kmh SSE -- 30.27 in1025.1 mb 0.00 in0.0 mm 0.00 in0.0 mm 0.00 in0.0 mm
09:14 AM 46.9°F8.3°C 29.1°F-1.6°C 50% 6.0 mph SW9.7 kmh SW -- 30.27 in1025.1 mb 0.00 in0.0 mm 0.00 in0.0 mm 0.00 in0.0 mm
09:18 AM 47.1°F8.4°C 29.3°F-1.5°C 50% 3.0 mph SW4.8 kmh SW -- 30.27 in1025.1 mb 0.00 in0.0 mm 0.00 in0.0 mm 0.00 in0.0 mm
09:23 AM 47.3°F8.5°C 29.4°F-1.4°C 50% 4.0 mph SW6.4 kmh SW -- 30.27 in1025.1 mb 0.00 in0.0 mm 0.00 in0.0 mm 0.00 in0.0 mm
09:29 AM 47.6°F8.7°C 29.3°F-1.5°C 49% 2.0 mph SSE3.2 kmh SSE -- 30.27 in1025.1 mb 0.00 in0.0 mm 0.00 in0.0 mm 0.00 in0.0 mm
09:34 AM 47.7°F8.7°C 29.3°F-1.5°C 49% 2.0 mph SW3.2 kmh SW -- 30.27 in1025.1 mb 0.00 in0.0 mm 0.00 in0.0 mm 0.00 in0.0 mm
09:38 AM 47.8°F8.8°C 29.4°F-1.4°C 49% 1.0 mph S1.6 kmh S -- 30.27 in1025.1 mb 0.00 in0.0 mm 0.00 in0.0 mm 0.00 in0.0 mm
09:44 AM 48.0°F8.9°C 29.6°F-1.3°C 49% 3.0 mph WSW4.8 kmh WSW -- 30.27 in1025.1 mb 0.00 in0.0 mm 0.00 in0.0 mm 0.00 in0.0 mm
09:49 AM 48.1°F8.9°C 29.6°F-1.3°C 49% 4.0 mph S6.4 kmh S -- 30.28 in1025.4 mb 0.00 in0.0 mm 0.00 in0.0 mm 0.00 in0.0 mm
09:54 AM 48.4°F9.1°C 29.9°F-1.2°C 49% 5.0 mph S8.0 kmh S -- 30.28 in1025.4 mb 0.00 in0.0 mm 0.00 in0.0 mm 0.00 in0.0 mm
09:58 AM 48.6°F9.2°C 30.1°F-1.1°C 49% 4.0 mph S6.4 kmh S -- 30.27 in1025.1 mb 0.00 in0.0 mm 0.00 in0.0 mm 0.00 in0.0 mm
10:04 AM 49.0°F9.4°C 30.4°F-0.9°C 49% 3.0 mph SSW4.8 kmh SSW -- 30.28 in1025.4 mb 0.00 in0.0 mm 0.00 in0.0 mm 0.00 in0.0 mm
10:09 AM 49.4°F9.7°C 30.9°F-0.6°C 49% 2.0 mph S3.2 kmh S -- 30.28 in1025.4 mb 0.00 in0.0 mm 0.00 in0.0 mm 0.00 in0.0 mm
10:13 AM 49.7°F9.8°C 31.1°F-0.5°C 49% 4.0 mph S6.4 kmh S -- 30.28 in1025.4 mb 0.00 in0.0 mm 0.00 in0.0 mm 0.00 in0.0 mm
10:18 AM 50.1°F10.1°C 31.6°F-0.2°C 49% 1.0 mph S1.6 kmh S -- 30.27 in1025.1 mb 0.00 in0.0 mm 0.00 in0.0 mm 0.00 in0.0 mm
10:24 AM 50.5°F10.3°C 30.9°F-0.6°C 47% 6.0 mph WSW9.7 kmh WSW -- 30.27 in1025.1 mb 0.00 in0.0 mm 0.00 in0.0 mm 0.00 in0.0 mm
10:28 AM 51.0°F10.6°C 31.9°F-0.1°C 48% 1.0 mph SW1.6 kmh SW -- 30.28 in1025.4 mb 0.00 in0.0 mm 0.00 in0.0 mm 0.00 in0.0 mm
10:34 AM 51.2°F10.7°C 31.5°F-0.3°C 47% 2.0 mph ESE3.2 kmh ESE -- 30.28 in1025.4 mb 0.00 in0.0 mm 0.00 in0.0 mm 0.00 in0.0 mm
10:38 AM 51.5°F10.8°C 31.7°F-0.2°C 47% 2.0 mph SW3.2 kmh SW -- 30.28 in1025.4 mb 0.00 in0.0 mm 0.00 in0.0 mm 0.00 in0.0 mm
10:44 AM 51.8°F11.0°C 32.0°F0.0°C 47% 3.0 mph SW4.8 kmh SW -- 30.28 in1025.4 mb 0.00 in0.0 mm 0.00 in0.0 mm 0.00 in0.0 mm
10:49 AM 51.9°F11.1°C 32.2°F0.1°C 47% 2.0 mph SSE3.2 kmh SSE -- 30.28 in1025.4 mb 0.00 in0.0 mm 0.00 in0.0 mm 0.00 in0.0 mm
10:53 AM 52.1°F11.2°C 32.4°F0.2°C 47% 4.0 mph S6.4 kmh S -- 30.28 in1025.4 mb 0.00 in0.0 mm 0.00 in0.0 mm 0.00 in0.0 mm
10:58 AM 52.3°F11.3°C 32.5°F0.3°C 47% 1.0 mph WSW1.6 kmh WSW -- 30.28 in1025.4 mb 0.00 in0.0 mm 0.00 in0.0 mm 0.00 in0.0 mm
11:04 AM 52.7°F11.5°C 32.9°F0.5°C 47% 1.0 mph S1.6 kmh S -- 30.28 in1025.4 mb 0.00 in0.0 mm 0.00 in0.0 mm 0.00 in0.0 mm
11:09 AM 53.0°F11.7°C 32.7°F0.4°C 46% 2.0 mph S3.2 kmh S -- 30.27 in1025.1 mb 0.00 in0.0 mm 0.00 in0.0 mm 0.00 in0.0 mm
11:14 AM 53.3°F11.8°C 33.4°F0.8°C 47% 3.0 mph SSE4.8 kmh SSE -- 30.27 in1025.1 mb 0.00 in0.0 mm 0.00 in0.0 mm 0.00 in0.0 mm
11:18 AM 53.4°F11.9°C 32.4°F0.2°C 45% 3.0 mph S4.8 kmh S -- 30.27 in1025.1 mb 0.00 in0.0 mm 0.00 in0.0 mm 0.00 in0.0 mm
11:24 AM 53.2°F11.8°C 32.3°F0.2°C 45% 5.0 mph SSE8.0 kmh SSE -- 30.27 in1025.1 mb 0.00 in0.0 mm 0.00 in0.0 mm 0.00 in0.0 mm
11:29 AM 53.2°F11.8°C 32.3°F0.2°C 45% 2.0 mph S3.2 kmh S -- 30.26 in1024.7 mb 0.00 in0.0 mm 0.00 in0.0 mm 0.00 in0.0 mm
11:33 AM 53.3°F11.8°C 32.8°F0.4°C 46% 3.0 mph NW4.8 kmh NW -- 30.26 in1024.7 mb 0.00 in0.0 mm 0.00 in0.0 mm 0.00 in0.0 mm
11:38 AM 53.4°F11.9°C 32.4°F0.2°C 45% 3.0 mph S4.8 kmh S -- 30.26 in1024.7 mb 0.00 in0.0 mm 0.00 in0.0 mm 0.00 in0.0 mm
11:44 AM 53.6°F12.0°C 33.2°F0.7°C 46% 2.0 mph WNW3.2 kmh WNW -- 30.26 in1024.7 mb 0.00 in0.0 mm 0.00 in0.0 mm 0.00 in0.0 mm
11:49 AM 53.7°F12.1°C 32.8°F0.4°C 45% 2.0 mph SW3.2 kmh SW -- 30.26 in1024.7 mb 0.00 in0.0 mm 0.00 in0.0 mm 0.00 in0.0 mm
11:53 AM 53.9°F12.2°C 32.9°F0.5°C 45% Calm Calm -- 30.25 in1024.4 mb 0.00 in0.0 mm 0.00 in0.0 mm 0.00 in0.0 mm
11:59 AM 54.1°F12.3°C 32.5°F0.3°C 44% 2.0 mph SE3.2 kmh SE -- 30.25 in1024.4 mb 0.00 in0.0 mm 0.00 in0.0 mm 0.00 in0.0 mm
12:04 PM 54.1°F12.3°C 32.5°F0.3°C 44% 7.0 mph SSW11.3 kmh SSW -- 30.25 in1024.4 mb 0.00 in0.0 mm 0.00 in0.0 mm 0.00 in0.0 mm
12:08 PM 54.0°F12.2°C 32.4°F0.2°C 44% 10.0 mph SW16.1 kmh SW -- 30.25 in1024.4 mb 0.00 in0.0 mm 0.00 in0.0 mm 0.00 in0.0 mm
12:13 PM 54.2°F12.3°C 33.1°F0.6°C 45% 4.0 mph S6.4 kmh S -- 30.25 in1024.4 mb 0.00 in0.0 mm 0.00 in0.0 mm 0.00 in0.0 mm
12:19 PM 54.5°F12.5°C 32.9°F0.5°C 44% 3.0 mph S4.8 kmh S -- 30.24 in1024.0 mb 0.00 in0.0 mm 0.00 in0.0 mm 0.00 in0.0 mm
12:23 PM 54.8°F12.7°C 32.6°F0.3°C 43% 4.0 mph SW6.4 kmh SW -- 30.24 in1024.0 mb 0.00 in0.0 mm 0.00 in0.0 mm 0.00 in0.0 mm
12:29 PM 54.6°F12.6°C 32.5°F0.3°C 43% 5.0 mph SW8.0 kmh SW -- 30.24 in1024.0 mb 0.00 in0.0 mm 0.00 in0.0 mm 0.00 in0.0 mm
12:33 PM 54.7°F12.6°C 32.5°F0.3°C 43% 3.0 mph S4.8 kmh S -- 30.24 in1024.0 mb 0.00 in0.0 mm 0.00 in0.0 mm 0.00 in0.0 mm
12:39 PM 54.6°F12.6°C 32.5°F0.3°C 43% 1.0 mph SSE1.6 kmh SSE -- 30.23 in1023.7 mb 0.00 in0.0 mm 0.00 in0.0 mm 0.00 in0.0 mm
12:44 PM 54.7°F12.6°C 33.0°F0.6°C 44% 3.0 mph WSW4.8 kmh WSW -- 30.23 in1023.7 mb 0.00 in0.0 mm 0.00 in0.0 mm 0.00 in0.0 mm
12:48 PM 54.6°F12.6°C 33.0°F0.6°C 44% 3.0 mph SSW4.8 kmh SSW -- 30.24 in1024.0 mb 0.00 in0.0 mm 0.00 in0.0 mm 0.00 in0.0 mm
12:53 PM 54.4°F12.4°C 32.7°F0.4°C 44% 2.0 mph S3.2 kmh S -- 30.23 in1023.7 mb 0.00 in0.0 mm 0.00 in0.0 mm 0.00 in0.0 mm
12:59 PM 54.5°F12.5°C 32.3°F0.2°C 43% 9.0 mph SSW14.5 kmh SSW -- 30.24 in1024.0 mb 0.00 in0.0 mm 0.00 in0.0 mm 0.00 in0.0 mm
01:04 PM 54.8°F12.7°C 32.6°F0.3°C 43% 2.0 mph S3.2 kmh S -- 30.23 in1023.7 mb 0.00 in0.0 mm 0.00 in0.0 mm 0.00 in0.0 mm
01:08 PM 55.2°F12.9°C 32.9°F0.5°C 43% 3.0 mph SSE4.8 kmh SSE -- 30.23 in1023.7 mb 0.00 in0.0 mm 0.00 in0.0 mm 0.00 in0.0 mm
01:13 PM 55.4°F13.0°C 33.1°F0.6°C 43% 1.0 mph SSE1.6 kmh SSE -- 30.22 in1023.4 mb 0.00 in0.0 mm 0.00 in0.0 mm 0.00 in0.0 mm
01:19 PM 55.6°F13.1°C 32.7°F0.4°C 42% 2.0 mph SSE3.2 kmh SSE -- 30.22 in1023.4 mb 0.00 in0.0 mm 0.00 in0.0 mm 0.00 in0.0 mm
01:24 PM 55.7°F13.2°C 32.2°F0.1°C 41% 4.0 mph WSW6.4 kmh WSW -- 30.22 in1023.4 mb 0.00 in0.0 mm 0.00 in0.0 mm 0.00 in0.0 mm
01:28 PM 55.7°F13.2°C 32.8°F0.4°C 42% 1.0 mph SE1.6 kmh SE -- 30.22 in1023.4 mb 0.00 in0.0 mm 0.00 in0.0 mm 0.00 in0.0 mm
01:33 PM 55.8°F13.2°C 33.4°F0.8°C 43% 4.0 mph S6.4 kmh S -- 30.22 in1023.4 mb 0.00 in0.0 mm 0.00 in0.0 mm 0.00 in0.0 mm
01:39 PM 56.1°F13.4°C 34.3°F1.3°C 44% 1.0 mph SSW1.6 kmh SSW -- 30.22 in1023.4 mb 0.00 in0.0 mm 0.00 in0.0 mm 0.00 in0.0 mm
01:44 PM 56.3°F13.5°C 33.3°F0.7°C 42% 5.0 mph S8.0 kmh S -- 30.22 in1023.4 mb 0.00 in0.0 mm 0.00 in0.0 mm 0.00 in0.0 mm
01:48 PM 56.4°F13.6°C 32.9°F0.5°C 41% 3.0 mph S4.8 kmh S -- 30.22 in1023.4 mb 0.00 in0.0 mm 0.00 in0.0 mm 0.00 in0.0 mm
01:53 PM 56.4°F13.6°C 33.5°F0.8°C 42% 3.0 mph SSW4.8 kmh SSW -- 30.21 in1023.0 mb 0.00 in0.0 mm 0.00 in0.0 mm 0.00 in0.0 mm
01:59 PM 56.5°F13.6°C 33.5°F0.8°C 42% 2.0 mph S3.2 kmh S -- 30.21 in1023.0 mb 0.00 in0.0 mm 0.00 in0.0 mm 0.00 in0.0 mm
02:03 PM 56.6°F13.7°C 33.1°F0.6°C 41% 6.0 mph S9.7 kmh S -- 30.21 in1023.0 mb 0.00 in0.0 mm 0.00 in0.0 mm 0.00 in0.0 mm
02:08 PM 56.7°F13.7°C 33.1°F0.6°C 41% 3.0 mph S4.8 kmh S -- 30.21 in1023.0 mb 0.00 in0.0 mm 0.00 in0.0 mm 0.00 in0.0 mm
02:13 PM 56.6°F13.7°C 33.7°F0.9°C 42% 4.0 mph WNW6.4 kmh WNW -- 30.21 in1023.0 mb 0.00 in0.0 mm 0.00 in0.0 mm 0.00 in0.0 mm
02:18 PM 56.5°F13.6°C 34.1°F1.2°C 43% 3.0 mph S4.8 kmh S -- 30.21 in1023.0 mb 0.00 in0.0 mm 0.00 in0.0 mm 0.00 in0.0 mm
02:24 PM 56.4°F13.6°C 33.5°F0.8°C 42% 3.0 mph SSW4.8 kmh SSW -- 30.21 in1023.0 mb 0.00 in0.0 mm 0.00 in0.0 mm 0.00 in0.0 mm
02:28 PM 56.3°F13.5°C 33.9°F1.1°C 43% 2.0 mph SSW3.2 kmh SSW -- 30.21 in1023.0 mb 0.00 in0.0 mm 0.00 in0.0 mm 0.00 in0.0 mm
02:34 PM 56.4°F13.6°C 33.5°F0.8°C 42% 6.0 mph SE9.7 kmh SE -- 30.21 in1023.0 mb 0.00 in0.0 mm 0.00 in0.0 mm 0.00 in0.0 mm
02:39 PM 56.5°F13.6°C 34.1°F1.2°C 43% 5.0 mph SSW8.0 kmh SSW -- 30.21 in1023.0 mb 0.00 in0.0 mm 0.00 in0.0 mm 0.00 in0.0 mm
02:43 PM 56.6°F13.7°C 34.3°F1.3°C 43% 6.0 mph SSW9.7 kmh SSW -- 30.21 in1023.0 mb 0.00 in0.0 mm 0.00 in0.0 mm 0.00 in0.0 mm
02:48 PM 56.5°F13.6°C 34.1°F1.2°C 43% 2.0 mph SW3.2 kmh SW -- 30.21 in1023.0 mb 0.00 in0.0 mm 0.00 in0.0 mm 0.00 in0.0 mm
02:54 PM 56.7°F13.7°C 34.3°F1.3°C 43% 4.0 mph S6.4 kmh S -- 30.21 in1023.0 mb 0.00 in0.0 mm 0.00 in0.0 mm 0.00 in0.0 mm
02:59 PM 56.6°F13.7°C 34.3°F1.3°C 43% 6.0 mph S9.7 kmh S -- 30.21 in1023.0 mb 0.00 in0.0 mm 0.00 in0.0 mm 0.00 in0.0 mm
03:04 PM 56.4°F13.6°C 34.7°F1.5°C 44% 5.0 mph SW8.0 kmh SW -- 30.21 in1023.0 mb 0.00 in0.0 mm 0.00 in0.0 mm 0.00 in0.0 mm
03:08 PM 56.2°F13.4°C 34.3°F1.3°C 44% 6.0 mph S9.7 kmh S -- 30.21 in1023.0 mb 0.00 in0.0 mm 0.00 in0.0 mm 0.00 in0.0 mm
03:14 PM 56.0°F13.3°C 35.3°F1.8°C 46% 10.0 mph SSW16.1 kmh SSW -- 30.22 in1023.4 mb 0.00 in0.0 mm 0.00 in0.0 mm 0.00 in0.0 mm
03:19 PM 55.4°F13.0°C 35.3°F1.8°C 47% 4.0 mph SW6.4 kmh SW -- 30.22 in1023.4 mb 0.00 in0.0 mm 0.00 in0.0 mm 0.00 in0.0 mm
03:24 PM 55.2°F12.9°C 35.7°F2.1°C 48% 10.0 mph WSW16.1 kmh WSW -- 30.22 in1023.4 mb 0.00 in0.0 mm 0.00 in0.0 mm 0.00 in0.0 mm
03:28 PM 54.9°F12.7°C 35.9°F2.2°C 49% 8.0 mph S12.9 kmh S -- 30.22 in1023.4 mb 0.00 in0.0 mm 0.00 in0.0 mm 0.00 in0.0 mm
03:33 PM 54.7°F12.6°C 36.3°F2.4°C 50% 9.0 mph S14.5 kmh S -- 30.22 in1023.4 mb 0.00 in0.0 mm 0.00 in0.0 mm 0.00 in0.0 mm
03:39 PM 54.7°F12.6°C 36.8°F2.7°C 51% 5.0 mph SW8.0 kmh SW -- 30.21 in1023.0 mb 0.00 in0.0 mm 0.00 in0.0 mm 0.00 in0.0 mm
03:44 PM 54.7°F12.6°C 36.8°F2.7°C 51% 5.0 mph S8.0 kmh S -- 30.21 in1023.0 mb 0.00 in0.0 mm 0.00 in0.0 mm 0.00 in0.0 mm
03:48 PM 54.6°F12.6°C 36.8°F2.7°C 51% 3.0 mph SSE4.8 kmh SSE -- 30.21 in1023.0 mb 0.00 in0.0 mm 0.00 in0.0 mm 0.00 in0.0 mm
03:54 PM 54.7°F12.6°C 36.8°F2.7°C 51% 6.0 mph S9.7 kmh S -- 30.21 in1023.0 mb 0.00 in0.0 mm 0.00 in0.0 mm 0.00 in0.0 mm
03:58 PM 54.6°F12.6°C 37.3°F2.9°C 52% 2.0 mph S3.2 kmh S -- 30.21 in1023.0 mb 0.00 in0.0 mm 0.00 in0.0 mm 0.00 in0.0 mm
04:04 PM 54.4°F12.4°C 36.9°F2.7°C 52% 2.0 mph S3.2 kmh S -- 30.21 in1023.0 mb 0.00 in0.0 mm 0.00 in0.0 mm 0.00 in0.0 mm
04:08 PM 54.3°F12.4°C 37.4°F3.0°C 53% 2.0 mph SW3.2 kmh SW -- 30.21 in1023.0 mb 0.00 in0.0 mm 0.00 in0.0 mm 0.00 in0.0 mm
04:13 PM 54.0°F12.2°C 37.1°F2.8°C 53% 3.0 mph SSE4.8 kmh SSE -- 30.21 in1023.0 mb 0.00 in0.0 mm 0.00 in0.0 mm 0.00 in0.0 mm
04:19 PM 53.8°F12.1°C 37.4°F3.0°C 54% 9.0 mph S14.5 kmh S -- 30.21 in1023.0 mb 0.00 in0.0 mm 0.00 in0.0 mm 0.00 in0.0 mm
04:24 PM 53.7°F12.1°C 37.4°F3.0°C 54% 3.0 mph S4.8 kmh S -- 30.21 in1023.0 mb 0.00 in0.0 mm 0.00 in0.0 mm 0.00 in0.0 mm
04:28 PM 53.6°F12.0°C 37.7°F3.2°C 55% 4.0 mph SSW6.4 kmh SSW -- 30.21 in1023.0 mb 0.00 in0.0 mm 0.00 in0.0 mm 0.00 in0.0 mm
04:34 PM 53.5°F11.9°C 37.5°F3.1°C 55% 4.0 mph SW6.4 kmh SW -- 30.21 in1023.0 mb 0.00 in0.0 mm 0.00 in0.0 mm 0.00 in0.0 mm
04:38 PM 53.3°F11.8°C 37.8°F3.2°C 56% 5.0 mph S8.0 kmh S -- 30.21 in1023.0 mb 0.00 in0.0 mm 0.00 in0.0 mm 0.00 in0.0 mm
04:43 PM 53.3°F11.8°C 37.8°F3.2°C 56% 3.0 mph S4.8 kmh S -- 30.21 in1023.0 mb 0.00 in0.0 mm 0.00 in0.0 mm 0.00 in0.0 mm
04:48 PM 53.2°F11.8°C 37.8°F3.2°C 56% 4.0 mph SSW6.4 kmh SSW -- 30.21 in1023.0 mb 0.00 in0.0 mm 0.00 in0.0 mm 0.00 in0.0 mm
04:54 PM 53.1°F11.7°C 37.6°F3.1°C 56% 3.0 mph S4.8 kmh S -- 30.21 in1023.0 mb 0.00 in0.0 mm 0.00 in0.0 mm 0.00 in0.0 mm
04:59 PM 53.0°F11.7°C 37.6°F3.1°C 56% 3.0 mph S4.8 kmh S -- 30.21 in1023.0 mb 0.00 in0.0 mm 0.00 in0.0 mm 0.00 in0.0 mm
05:03 PM 53.0°F11.7°C 38.1°F3.4°C 57% 1.0 mph SSE1.6 kmh SSE -- 30.21 in1023.0 mb 0.00 in0.0 mm 0.00 in0.0 mm 0.00 in0.0 mm
05:08 PM 52.8°F11.6°C 37.9°F3.3°C 57% 1.0 mph S1.6 kmh S -- 30.21 in1023.0 mb 0.00 in0.0 mm 0.00 in0.0 mm 0.00 in0.0 mm
05:14 PM 52.6°F11.4°C 37.6°F3.1°C 57% 1.0 mph SE1.6 kmh SE -- 30.21 in1023.0 mb 0.00 in0.0 mm 0.00 in0.0 mm 0.00 in0.0 mm
05:19 PM 52.5°F11.4°C 38.0°F3.3°C 58% 2.0 mph SSE3.2 kmh SSE -- 30.21 in1023.0 mb 0.00 in0.0 mm 0.00 in0.0 mm 0.00 in0.0 mm
05:23 PM 52.4°F11.3°C 37.9°F3.3°C 58% Calm Calm -- 30.21 in1023.0 mb 0.00 in0.0 mm 0.00 in0.0 mm 0.00 in0.0 mm
05:28 PM 52.1°F11.2°C 37.7°F3.2°C 58% Calm Calm -- 30.21 in1023.0 mb 0.00 in0.0 mm 0.00 in0.0 mm 0.00 in0.0 mm
05:34 PM 51.9°F11.1°C 38.0°F3.3°C 59% Calm Calm -- 30.22 in1023.4 mb 0.00 in0.0 mm 0.00 in0.0 mm 0.00 in0.0 mm
05:39 PM 51.6°F10.9°C 38.1°F3.4°C 60% Calm Calm -- 30.22 in1023.4 mb 0.00 in0.0 mm 0.00 in0.0 mm 0.00 in0.0 mm
05:43 PM 51.4°F10.8°C 37.9°F3.3°C 60% Calm Calm -- 30.22 in1023.4 mb 0.00 in0.0 mm 0.00 in0.0 mm 0.00 in0.0 mm
05:48 PM 51.1°F10.6°C 37.5°F3.1°C 60% Calm Calm -- 30.22 in1023.4 mb 0.00 in0.0 mm 0.00 in0.0 mm 0.00 in0.0 mm
05:53 PM 50.8°F10.4°C 37.2°F2.9°C 60% Calm Calm -- 30.23 in1023.7 mb 0.00 in0.0 mm 0.00 in0.0 mm 0.00 in0.0 mm
05:58 PM 50.6°F10.3°C 37.5°F3.1°C 61% Calm Calm -- 30.23 in1023.7 mb 0.00 in0.0 mm 0.00 in0.0 mm 0.00 in0.0 mm
06:04 PM 50.5°F10.3°C 37.9°F3.3°C 62% Calm Calm -- 30.23 in1023.7 mb 0.00 in0.0 mm 0.00 in0.0 mm 0.00 in0.0 mm
06:08 PM 50.6°F10.3°C 37.9°F3.3°C 62% 1.0 mph S1.6 kmh S -- 30.24 in1024.0 mb 0.00 in0.0 mm 0.00 in0.0 mm 0.00 in0.0 mm
06:13 PM 50.4°F10.2°C 37.7°F3.2°C 62% 1.0 mph S1.6 kmh S -- 30.23 in1023.7 mb 0.00 in0.0 mm 0.00 in0.0 mm 0.00 in0.0 mm
06:19 PM 50.6°F10.3°C 37.9°F3.3°C 62% Calm Calm -- 30.23 in1023.7 mb 0.00 in0.0 mm 0.00 in0.0 mm 0.00 in0.0 mm
06:23 PM 50.5°F10.3°C 37.9°F3.3°C 62% 1.0 mph SW1.6 kmh SW -- 30.23 in1023.7 mb 0.00 in0.0 mm 0.00 in0.0 mm 0.00 in0.0 mm
06:28 PM 50.6°F10.3°C 37.9°F3.3°C 62% Calm Calm -- 30.23 in1023.7 mb 0.00 in0.0 mm 0.00 in0.0 mm 0.00 in0.0 mm
06:34 PM 50.6°F10.3°C 38.3°F3.5°C 63% Calm Calm -- 30.24 in1024.0 mb 0.00 in0.0 mm 0.00 in0.0 mm 0.00 in0.0 mm
06:39 PM 50.5°F10.3°C 38.3°F3.5°C 63% Calm Calm -- 30.24 in1024.0 mb 0.00 in0.0 mm 0.00 in0.0 mm 0.00 in0.0 mm
06:44 PM 50.5°F10.3°C 38.3°F3.5°C 63% 1.0 mph S1.6 kmh S -- 30.24 in1024.0 mb 0.00 in0.0 mm 0.00 in0.0 mm 0.00 in0.0 mm
06:49 PM 50.5°F10.3°C 38.3°F3.5°C 63% Calm Calm -- 30.25 in1024.4 mb 0.00 in0.0 mm 0.00 in0.0 mm 0.00 in0.0 mm
06:54 PM 50.5°F10.3°C 38.3°F3.5°C 63% 3.0 mph WSW4.8 kmh WSW -- 30.24 in1024.0 mb 0.00 in0.0 mm 0.00 in0.0 mm 0.00 in0.0 mm
06:59 PM 50.4°F10.2°C 38.5°F3.6°C 64% 1.0 mph SSE1.6 kmh SSE -- 30.24 in1024.0 mb 0.00 in0.0 mm 0.00 in0.0 mm 0.00 in0.0 mm
07:04 PM 50.2°F10.1°C 38.4°F3.6°C 64% 1.0 mph S1.6 kmh S -- 30.24 in1024.0 mb 0.00 in0.0 mm 0.00 in0.0 mm 0.00 in0.0 mm
07:08 PM 50.2°F10.1°C 38.4°F3.6°C 64% 2.0 mph S3.2 kmh S -- 30.24 in1024.0 mb 0.00 in0.0 mm 0.00 in0.0 mm 0.00 in0.0 mm
07:13 PM 50.1°F10.1°C 38.8°F3.8°C 65% Calm Calm -- 30.23 in1023.7 mb 0.00 in0.0 mm 0.00 in0.0 mm 0.00 in0.0 mm
07:19 PM 49.7°F9.8°C 38.2°F3.4°C 65% 3.0 mph N4.8 kmh N -- 30.24 in1024.0 mb 0.00 in0.0 mm 0.00 in0.0 mm 0.00 in0.0 mm
07:23 PM 49.5°F9.7°C 38.5°F3.6°C 66% Calm Calm -- 30.24 in1024.0 mb 0.00 in0.0 mm 0.00 in0.0 mm 0.00 in0.0 mm
07:28 PM 49.2°F9.6°C 38.3°F3.5°C 66% Calm Calm -- 30.24 in1024.0 mb 0.00 in0.0 mm 0.00 in0.0 mm 0.00 in0.0 mm
07:34 PM 49.1°F9.5°C 38.5°F3.6°C 67% 2.0 mph S3.2 kmh S -- 30.24 in1024.0 mb 0.00 in0.0 mm 0.00 in0.0 mm 0.00 in0.0 mm
07:38 PM 48.9°F9.4°C 38.3°F3.5°C 67% 2.0 mph SW3.2 kmh SW -- 30.24 in1024.0 mb 0.00 in0.0 mm 0.00 in0.0 mm 0.00 in0.0 mm
07:43 PM 48.7°F9.3°C 38.2°F3.4°C 67% Calm Calm -- 30.24 in1024.0 mb 0.00 in0.0 mm 0.00 in0.0 mm 0.00 in0.0 mm
07:48 PM 48.4°F9.1°C 38.2°F3.4°C 68% Calm Calm -- 30.24 in1024.0 mb 0.00 in0.0 mm 0.00 in0.0 mm 0.00 in0.0 mm
07:53 PM 48.1°F8.9°C 37.9°F3.3°C 68% Calm Calm -- 30.24 in1024.0 mb 0.00 in0.0 mm 0.00 in0.0 mm 0.00 in0.0 mm
07:59 PM 47.8°F8.8°C 38.1°F3.4°C 69% Calm Calm -- 30.24 in1024.0 mb 0.00 in0.0 mm 0.00 in0.0 mm 0.00 in0.0 mm
08:03 PM 47.7°F8.7°C 37.9°F3.3°C 69% Calm Calm -- 30.24 in1024.0 mb 0.00 in0.0 mm 0.00 in0.0 mm 0.00 in0.0 mm
08:08 PM 47.3°F8.5°C 37.9°F3.3°C 70% 1.0 mph SSW1.6 kmh SSW -- 30.24 in1024.0 mb 0.00 in0.0 mm 0.00 in0.0 mm 0.00 in0.0 mm
08:14 PM 47.2°F8.4°C 38.1°F3.4°C 71% 1.0 mph S1.6 kmh S -- 30.24 in1024.0 mb 0.00 in0.0 mm 0.00 in0.0 mm 0.00 in0.0 mm
08:18 PM 47.0°F8.3°C 37.9°F3.3°C 71% 2.0 mph SW3.2 kmh SW -- 30.24 in1024.0 mb 0.00 in0.0 mm 0.00 in0.0 mm 0.00 in0.0 mm
08:23 PM 47.1°F8.4°C 38.5°F3.6°C 72% 1.0 mph SSE1.6 kmh SSE -- 30.24 in1024.0 mb 0.00 in0.0 mm 0.00 in0.0 mm 0.00 in0.0 mm
08:29 PM 47.0°F8.3°C 38.3°F3.5°C 72% 1.0 mph SSE1.6 kmh SSE -- 30.24 in1024.0 mb 0.00 in0.0 mm 0.00 in0.0 mm 0.00 in0.0 mm
08:34 PM 47.1°F8.4°C 38.5°F3.6°C 72% 1.0 mph S1.6 kmh S -- 30.24 in1024.0 mb 0.00 in0.0 mm 0.00 in0.0 mm 0.00 in0.0 mm
08:39 PM 47.1°F8.4°C 38.5°F3.6°C 72% 1.0 mph S1.6 kmh S -- 30.24 in1024.0 mb 0.00 in0.0 mm 0.00 in0.0 mm 0.00 in0.0 mm
08:43 PM 47.5°F8.6°C 38.8°F3.8°C 72% 3.0 mph WSW4.8 kmh WSW -- 30.24 in1024.0 mb 0.00 in0.0 mm 0.00 in0.0 mm 0.00 in0.0 mm
08:49 PM 47.8°F8.8°C 39.2°F4.0°C 72% 1.0 mph WSW1.6 kmh WSW -- 30.24 in1024.0 mb 0.00 in0.0 mm 0.00 in0.0 mm 0.00 in0.0 mm
08:54 PM 48.0°F8.9°C 39.0°F3.9°C 71% 4.0 mph WSW6.4 kmh WSW -- 30.24 in1024.0 mb 0.00 in0.0 mm 0.00 in0.0 mm 0.00 in0.0 mm
08:58 PM 48.0°F8.9°C 39.0°F3.9°C 71% 2.0 mph SSW3.2 kmh SSW -- 30.24 in1024.0 mb 0.00 in0.0 mm 0.00 in0.0 mm 0.00 in0.0 mm
09:03 PM 48.1°F8.9°C 39.0°F3.9°C 71% 2.0 mph SE3.2 kmh SE -- 30.24 in1024.0 mb 0.00 in0.0 mm 0.00 in0.0 mm 0.00 in0.0 mm
09:08 PM 48.3°F9.1°C 39.3°F4.1°C 71% Calm Calm -- 30.24 in1024.0 mb 0.00 in0.0 mm 0.00 in0.0 mm 0.00 in0.0 mm
09:14 PM 48.4°F9.1°C 38.9°F3.8°C 70% 2.0 mph SSW3.2 kmh SSW -- 30.23 in1023.7 mb 0.00 in0.0 mm 0.00 in0.0 mm 0.00 in0.0 mm
09:18 PM 48.4°F9.1°C 38.9°F3.8°C 70% 2.0 mph SSW3.2 kmh SSW -- 30.24 in1024.0 mb 0.00 in0.0 mm 0.00 in0.0 mm 0.00 in0.0 mm
09:19 PM 48.4°F9.1°C 38.9°F3.8°C 70% 2.0 mph S3.2 kmh S -- 30.24 in1024.0 mb 0.00 in0.0 mm 0.00 in0.0 mm 0.00 in0.0 mm
09:23 PM 48.5°F9.2°C 39.1°F3.9°C 70% 1.0 mph S1.6 kmh S -- 30.24 in1024.0 mb 0.00 in0.0 mm 0.00 in0.0 mm 0.00 in0.0 mm
09:29 PM 48.5°F9.2°C 39.1°F3.9°C 70% 1.0 mph S1.6 kmh S -- 30.24 in1024.0 mb 0.00 in0.0 mm 0.00 in0.0 mm 0.00 in0.0 mm
09:33 PM 48.7°F9.3°C 38.9°F3.8°C 69% 2.0 mph SSW3.2 kmh SSW -- 30.23 in1023.7 mb 0.00 in0.0 mm 0.00 in0.0 mm 0.00 in0.0 mm
09:38 PM 49.1°F9.5°C 38.9°F3.8°C 68% 3.0 mph S4.8 kmh S -- 30.23 in1023.7 mb 0.00 in0.0 mm 0.00 in0.0 mm 0.00 in0.0 mm
09:43 PM 49.3°F9.6°C 39.1°F3.9°C 68% 1.0 mph SW1.6 kmh SW -- 30.23 in1023.7 mb 0.00 in0.0 mm 0.00 in0.0 mm 0.00 in0.0 mm
09:48 PM 49.5°F9.7°C 38.8°F3.8°C 67% 2.0 mph W3.2 kmh W -- 30.23 in1023.7 mb 0.00 in0.0 mm 0.00 in0.0 mm 0.00 in0.0 mm
09:54 PM 49.6°F9.8°C 39.0°F3.9°C 67% 3.0 mph NW4.8 kmh NW -- 30.23 in1023.7 mb 0.00 in0.0 mm 0.00 in0.0 mm 0.00 in0.0 mm
09:58 PM 49.8°F9.9°C 39.2°F4.0°C 67% 5.0 mph W8.0 kmh W -- 30.23 in1023.7 mb 0.00 in0.0 mm 0.00 in0.0 mm 0.00 in0.0 mm
10:03 PM 49.9°F9.9°C 38.8°F3.8°C 66% 2.0 mph SE3.2 kmh SE -- 30.23 in1023.7 mb 0.00 in0.0 mm 0.00 in0.0 mm 0.00 in0.0 mm
10:09 PM 49.9°F9.9°C 38.8°F3.8°C 66% 2.0 mph SSW3.2 kmh SSW -- 30.23 in1023.7 mb 0.00 in0.0 mm 0.00 in0.0 mm 0.00 in0.0 mm
10:13 PM 49.9°F9.9°C 38.8°F3.8°C 66% 2.0 mph NW3.2 kmh NW -- 30.24 in1024.0 mb 0.00 in0.0 mm 0.00 in0.0 mm 0.00 in0.0 mm
10:18 PM 49.7°F9.8°C 39.0°F3.9°C 67% 2.0 mph WSW3.2 kmh WSW -- 30.24 in1024.0 mb 0.00 in0.0 mm 0.00 in0.0 mm 0.00 in0.0 mm
10:24 PM 49.6°F9.8°C 39.0°F3.9°C 67% 2.0 mph W3.2 kmh W -- 30.24 in1024.0 mb 0.00 in0.0 mm 0.00 in0.0 mm 0.00 in0.0 mm
10:29 PM 49.4°F9.7°C 38.8°F3.8°C 67% 2.0 mph SW3.2 kmh SW -- 30.24 in1024.0 mb 0.00 in0.0 mm 0.00 in0.0 mm 0.00 in0.0 mm
10:34 PM 49.5°F9.7°C 38.8°F3.8°C 67% 3.0 mph N4.8 kmh N -- 30.24 in1024.0 mb 0.00 in0.0 mm 0.00 in0.0 mm 0.00 in0.0 mm
10:38 PM 49.3°F9.6°C 39.1°F3.9°C 68% 1.0 mph WNW1.6 kmh WNW -- 30.24 in1024.0 mb 0.00 in0.0 mm 0.00 in0.0 mm 0.00 in0.0 mm
10:44 PM 49.3°F9.6°C 39.1°F3.9°C 68% Calm Calm -- 30.24 in1024.0 mb 0.00 in0.0 mm 0.00 in0.0 mm 0.00 in0.0 mm
10:49 PM 49.0°F9.4°C 38.7°F3.7°C 68% 3.0 mph N4.8 kmh N -- 30.24 in1024.0 mb 0.00 in0.0 mm 0.00 in0.0 mm 0.00 in0.0 mm
10:54 PM 49.0°F9.4°C 39.1°F3.9°C 69% 2.0 mph SE3.2 kmh SE -- 30.24 in1024.0 mb 0.00 in0.0 mm 0.00 in0.0 mm 0.00 in0.0 mm
10:58 PM 49.0°F9.4°C 39.1°F3.9°C 69% Calm Calm -- 30.24 in1024.0 mb 0.00 in0.0 mm 0.00 in0.0 mm 0.00 in0.0 mm
11:03 PM 49.0°F9.4°C 39.1°F3.9°C 69% 4.0 mph NW6.4 kmh NW -- 30.24 in1024.0 mb 0.00 in0.0 mm 0.00 in0.0 mm 0.00 in0.0 mm
11:09 PM 49.0°F9.4°C 39.1°F3.9°C 69% 1.0 mph NE1.6 kmh NE -- 30.24 in1024.0 mb 0.00 in0.0 mm 0.00 in0.0 mm 0.00 in0.0 mm
11:13 PM 48.8°F9.3°C 38.5°F3.6°C 68% 3.0 mph SW4.8 kmh SW -- 30.24 in1024.0 mb 0.00 in0.0 mm 0.00 in0.0 mm 0.00 in0.0 mm
11:18 PM 48.9°F9.4°C 38.7°F3.7°C 68% 2.0 mph ENE3.2 kmh ENE -- 30.25 in1024.4 mb 0.00 in0.0 mm 0.00 in0.0 mm 0.00 in0.0 mm
11:24 PM 49.0°F9.4°C 38.7°F3.7°C 68% 2.0 mph NW3.2 kmh NW -- 30.24 in1024.0 mb 0.00 in0.0 mm 0.00 in0.0 mm 0.00 in0.0 mm
11:28 PM 48.8°F9.3°C 38.9°F3.8°C 69% 3.0 mph NNW4.8 kmh NNW -- 30.24 in1024.0 mb 0.00 in0.0 mm 0.00 in0.0 mm 0.00 in0.0 mm
11:33 PM 48.6°F9.2°C 39.1°F3.9°C 70% Calm Calm -- 30.24 in1024.0 mb 0.00 in0.0 mm 0.00 in0.0 mm 0.00 in0.0 mm
11:38 PM 48.2°F9.0°C 39.1°F3.9°C 71% 2.0 mph ESE3.2 kmh ESE -- 30.24 in1024.0 mb 0.00 in0.0 mm 0.00 in0.0 mm 0.00 in0.0 mm
11:43 PM 48.0°F8.9°C 39.0°F3.9°C 71% 2.0 mph ENE3.2 kmh ENE -- 30.24 in1024.0 mb 0.00 in0.0 mm 0.00 in0.0 mm 0.00 in0.0 mm
11:49 PM 47.4°F8.6°C 38.8°F3.8°C 72% 2.0 mph ENE3.2 kmh ENE -- 30.24 in1024.0 mb 0.00 in0.0 mm 0.00 in0.0 mm 0.00 in0.0 mm
11:53 PM 46.9°F8.3°C 38.6°F3.7°C 73% 2.0 mph NE3.2 kmh NE -- 30.24 in1024.0 mb 0.00 in0.0 mm 0.00 in0.0 mm 0.00 in0.0 mm
11:58 PM 46.6°F8.1°C 38.6°F3.7°C 74% 2.0 mph NE3.2 kmh NE -- 30.24 in1024.0 mb 0.00 in0.0 mm 0.00 in0.0 mm 0.00 in0.0 mm